sensor_id;sensor_type;location;lat;lon;timestamp;temperature;humidity
4840;DHT22;2434;48.486;7.964;2023-03-01T00:01:25;0.70;49.00
4840;DHT22;2434;48.486;7.964;2023-03-01T00:03:54;0.60;49.70
4840;DHT22;2434;48.486;7.964;2023-03-01T00:06:22;0.70;49.80
4840;DHT22;2434;48.486;7.964;2023-03-01T00:08:51;0.70;48.90
4840;DHT22;2434;48.486;7.964;2023-03-01T00:11:21;0.70;49.10
4840;DHT22;2434;48.486;7.964;2023-03-01T00:13:51;0.70;48.80
4840;DHT22;2434;48.486;7.964;2023-03-01T00:16:23;0.60;48.50
4840;DHT22;2434;48.486;7.964;2023-03-01T00:18:55;0.60;48.60
4840;DHT22;2434;48.486;7.964;2023-03-01T00:21:24;0.60;48.70
4840;DHT22;2434;48.486;7.964;2023-03-01T00:23:53;0.50;48.80
4840;DHT22;2434;48.486;7.964;2023-03-01T00:26:23;0.50;49.20
4840;DHT22;2434;48.486;7.964;2023-03-01T00:28:52;0.50;50.00
4840;DHT22;2434;48.486;7.964;2023-03-01T00:31:26;0.50;49.40
4840;DHT22;2434;48.486;7.964;2023-03-01T00:33:57;0.50;49.40
4840;DHT22;2434;48.486;7.964;2023-03-01T00:36:29;0.40;49.10
4840;DHT22;2434;48.486;7.964;2023-03-01T00:38:59;0.40;49.30
4840;DHT22;2434;48.486;7.964;2023-03-01T00:41:28;0.40;49.70
4840;DHT22;2434;48.486;7.964;2023-03-01T00:43:56;0.40;49.20
4840;DHT22;2434;48.486;7.964;2023-03-01T00:46:27;0.40;49.00
4840;DHT22;2434;48.486;7.964;2023-03-01T00:48:57;0.40;49.40
4840;DHT22;2434;48.486;7.964;2023-03-01T00:51:29;0.40;49.40
4840;DHT22;2434;48.486;7.964;2023-03-01T00:53:59;0.40;49.20
4840;DHT22;2434;48.486;7.964;2023-03-01T00:56:29;0.30;49.30
4840;DHT22;2434;48.486;7.964;2023-03-01T00:58:58;0.10;51.70
4840;DHT22;2434;48.486;7.964;2023-03-01T01:01:29;0.20;50.20
4840;DHT22;2434;48.486;7.964;2023-03-01T01:04:00;0.30;49.40
4840;DHT22;2434;48.486;7.964;2023-03-01T01:06:30;0.30;49.50
4840;DHT22;2434;48.486;7.964;2023-03-01T01:09:00;0.20;49.30
4840;DHT22;2434;48.486;7.964;2023-03-01T01:11:29;0.20;49.60
4840;DHT22;2434;48.486;7.964;2023-03-01T01:13:58;0.20;49.40
4840;DHT22;2434;48.486;7.964;2023-03-01T01:16:30;0.20;50.00
4840;DHT22;2434;48.486;7.964;2023-03-01T01:18:59;0.20;49.50
4840;DHT22;2434;48.486;7.964;2023-03-01T01:21:27;0.20;49.40
4840;DHT22;2434;48.486;7.964;2023-03-01T01:23:56;0.20;49.40
4840;DHT22;2434;48.486;7.964;2023-03-01T01:26:26;0.20;49.70
4840;DHT22;2434;48.486;7.964;2023-03-01T01:28:56;0.20;50.00
4840;DHT22;2434;48.486;7.964;2023-03-01T01:31:25;0.20;50.40
4840;DHT22;2434;48.486;7.964;2023-03-01T01:33:55;0.20;50.80
4840;DHT22;2434;48.486;7.964;2023-03-01T01:36:24;0.20;50.40
4840;DHT22;2434;48.486;7.964;2023-03-01T01:38:52;0.20;50.20
4840;DHT22;2434;48.486;7.964;2023-03-01T01:41:21;0.10;50.30
4840;DHT22;2434;48.486;7.964;2023-03-01T01:44:11;0.10;50.20
4840;DHT22;2434;48.486;7.964;2023-03-01T01:46:40;0.00;50.90
4840;DHT22;2434;48.486;7.964;2023-03-01T01:49:19;-0.50;55.90
4840;DHT22;2434;48.486;7.964;2023-03-01T01:51:56;-0.50;56.30
4840;DHT22;2434;48.486;7.964;2023-03-01T01:54:29;-0.60;57.10
4840;DHT22;2434;48.486;7.964;2023-03-01T01:57:01;-0.50;56.80
4840;DHT22;2434;48.486;7.964;2023-03-01T01:59:31;-0.30;54.60
4840;DHT22;2434;48.486;7.964;2023-03-01T02:02:02;-0.20;53.40
4840;DHT22;2434;48.486;7.964;2023-03-01T02:04:33;-0.10;53.00
4840;DHT22;2434;48.486;7.964;2023-03-01T02:07:04;-0.10;52.80
4840;DHT22;2434;48.486;7.964;2023-03-01T02:09:35;-0.10;53.10
4840;DHT22;2434;48.486;7.964;2023-03-01T02:12:04;-0.20;54.40
4840;DHT22;2434;48.486;7.964;2023-03-01T02:14:33;-0.10;54.80
4840;DHT22;2434;48.486;7.964;2023-03-01T02:17:02;-0.10;54.10
4840;DHT22;2434;48.486;7.964;2023-03-01T02:19:42;-0.20;54.20
4840;DHT22;2434;48.486;7.964;2023-03-01T02:22:17;0.00;53.70
4840;DHT22;2434;48.486;7.964;2023-03-01T02:24:57;0.00;53.10
4840;DHT22;2434;48.486;7.964;2023-03-01T02:27:40;0.10;52.80
4840;DHT22;2434;48.486;7.964;2023-03-01T02:30:15;0.10;52.20
4840;DHT22;2434;48.486;7.964;2023-03-01T02:32:44;0.00;51.60
4840;DHT22;2434;48.486;7.964;2023-03-01T02:35:14;0.00;52.10
4840;DHT22;2434;48.486;7.964;2023-03-01T02:37:44;0.00;51.80
4840;DHT22;2434;48.486;7.964;2023-03-01T02:40:15;0.10;52.30
4840;DHT22;2434;48.486;7.964;2023-03-01T02:42:49;0.00;53.20
4840;DHT22;2434;48.486;7.964;2023-03-01T02:45:20;-0.10;54.20
4840;DHT22;2434;48.486;7.964;2023-03-01T02:47:50;0.00;52.90
4840;DHT22;2434;48.486;7.964;2023-03-01T02:50:45;0.00;53.40
4840;DHT22;2434;48.486;7.964;2023-03-01T02:53:19;0.00;52.60
4840;DHT22;2434;48.486;7.964;2023-03-01T02:55:51;-0.30;54.00
4840;DHT22;2434;48.486;7.964;2023-03-01T02:58:19;-0.40;56.00
4840;DHT22;2434;48.486;7.964;2023-03-01T03:00:50;-0.30;54.60
4840;DHT22;2434;48.486;7.964;2023-03-01T03:03:20;-0.20;53.70
4840;DHT22;2434;48.486;7.964;2023-03-01T03:05:49;-0.10;53.30
4840;DHT22;2434;48.486;7.964;2023-03-01T03:08:17;-0.10;52.70
4840;DHT22;2434;48.486;7.964;2023-03-01T03:10:51;-0.10;52.50
4840;DHT22;2434;48.486;7.964;2023-03-01T03:13:20;-0.10;52.30
4840;DHT22;2434;48.486;7.964;2023-03-01T03:15:50;-0.10;51.80
4840;DHT22;2434;48.486;7.964;2023-03-01T03:18:19;-0.20;52.90
4840;DHT22;2434;48.486;7.964;2023-03-01T03:20:47;-0.20;52.30
4840;DHT22;2434;48.486;7.964;2023-03-01T03:23:20;-0.20;51.90
4840;DHT22;2434;48.486;7.964;2023-03-01T03:25:49;-0.40;52.40
4840;DHT22;2434;48.486;7.964;2023-03-01T03:28:18;-0.60;55.20
4840;DHT22;2434;48.486;7.964;2023-03-01T03:30:46;-0.40;54.80
4840;DHT22;2434;48.486;7.964;2023-03-01T03:33:16;-0.30;53.20
4840;DHT22;2434;48.486;7.964;2023-03-01T03:35:45;-0.40;53.60
4840;DHT22;2434;48.486;7.964;2023-03-01T03:38:16;-0.40;54.40
4840;DHT22;2434;48.486;7.964;2023-03-01T03:40:46;-0.30;53.50
4840;DHT22;2434;48.486;7.964;2023-03-01T03:43:16;-0.20;52.50
4840;DHT22;2434;48.486;7.964;2023-03-01T03:45:45;-0.20;52.30
4840;DHT22;2434;48.486;7.964;2023-03-01T03:48:13;-0.20;51.90
4840;DHT22;2434;48.486;7.964;2023-03-01T03:50:47;-0.40;52.80
4840;DHT22;2434;48.486;7.964;2023-03-01T03:53:16;-0.40;53.30
4840;DHT22;2434;48.486;7.964;2023-03-01T03:55:44;-0.40;52.40
4840;DHT22;2434;48.486;7.964;2023-03-01T03:58:16;-0.30;53.10
4840;DHT22;2434;48.486;7.964;2023-03-01T04:00:49;-0.30;53.20
4840;DHT22;2434;48.486;7.964;2023-03-01T04:03:19;-0.30;52.70
4840;DHT22;2434;48.486;7.964;2023-03-01T04:05:49;-0.30;51.90
4840;DHT22;2434;48.486;7.964;2023-03-01T04:08:18;-0.30;51.70
4840;DHT22;2434;48.486;7.964;2023-03-01T04:10:49;-0.30;52.20
4840;DHT22;2434;48.486;7.964;2023-03-01T04:13:19;-0.30;51.80
4840;DHT22;2434;48.486;7.964;2023-03-01T04:15:48;-0.30;52.00
4840;DHT22;2434;48.486;7.964;2023-03-01T04:18:18;-0.40;51.80
4840;DHT22;2434;48.486;7.964;2023-03-01T04:20:49;-0.40;51.70
4840;DHT22;2434;48.486;7.964;2023-03-01T04:23:22;-0.40;52.40
4840;DHT22;2434;48.486;7.964;2023-03-01T04:25:51;-0.40;51.60
4840;DHT22;2434;48.486;7.964;2023-03-01T04:28:23;-0.40;51.60
4840;DHT22;2434;48.486;7.964;2023-03-01T04:30:52;-0.40;51.80
4840;DHT22;2434;48.486;7.964;2023-03-01T04:33:21;-0.50;51.60
4840;DHT22;2434;48.486;7.964;2023-03-01T04:35:51;-0.50;51.90
4840;DHT22;2434;48.486;7.964;2023-03-01T04:38:20;-0.50;51.30
4840;DHT22;2434;48.486;7.964;2023-03-01T04:40:48;-0.60;51.50
4840;DHT22;2434;48.486;7.964;2023-03-01T04:43:17;-0.60;51.90
4840;DHT22;2434;48.486;7.964;2023-03-01T04:45:45;-0.60;52.00
4840;DHT22;2434;48.486;7.964;2023-03-01T04:48:13;-0.60;51.70
4840;DHT22;2434;48.486;7.964;2023-03-01T04:50:41;-0.60;51.70
4840;DHT22;2434;48.486;7.964;2023-03-01T04:53:11;-0.60;51.80
4840;DHT22;2434;48.486;7.964;2023-03-01T04:55:39;-0.60;51.80
4840;DHT22;2434;48.486;7.964;2023-03-01T04:58:07;-0.60;51.90
4840;DHT22;2434;48.486;7.964;2023-03-01T05:00:36;-0.60;52.10
4840;DHT22;2434;48.486;7.964;2023-03-01T05:03:04;-0.60;52.10
4840;DHT22;2434;48.486;7.964;2023-03-01T05:05:34;-0.60;52.30
4840;DHT22;2434;48.486;7.964;2023-03-01T05:08:04;-0.70;53.00
4840;DHT22;2434;48.486;7.964;2023-03-01T05:10:35;-0.70;53.60
4840;DHT22;2434;48.486;7.964;2023-03-01T05:13:05;-0.70;53.20
4840;DHT22;2434;48.486;7.964;2023-03-01T05:15:34;-0.80;53.40
4840;DHT22;2434;48.486;7.964;2023-03-01T05:18:03;-0.70;53.80
4840;DHT22;2434;48.486;7.964;2023-03-01T05:20:34;-0.70;53.80
4840;DHT22;2434;48.486;7.964;2023-03-01T05:23:03;-0.70;54.70
4840;DHT22;2434;48.486;7.964;2023-03-01T05:25:34;-0.70;54.10
4840;DHT22;2434;48.486;7.964;2023-03-01T05:28:10;-1.00;54.70
4840;DHT22;2434;48.486;7.964;2023-03-01T05:30:39;-0.90;55.90
4840;DHT22;2434;48.486;7.964;2023-03-01T05:33:08;-0.90;56.40
4840;DHT22;2434;48.486;7.964;2023-03-01T05:35:41;-0.80;55.40
4840;DHT22;2434;48.486;7.964;2023-03-01T05:38:10;-0.80;54.90
4840;DHT22;2434;48.486;7.964;2023-03-01T05:40:42;-0.70;55.40
4840;DHT22;2434;48.486;7.964;2023-03-01T05:43:12;-0.70;55.40
4840;DHT22;2434;48.486;7.964;2023-03-01T05:45:41;-0.80;57.20
4840;DHT22;2434;48.486;7.964;2023-03-01T05:48:10;-1.30;62.00
4840;DHT22;2434;48.486;7.964;2023-03-01T05:50:41;-1.10;59.90
4840;DHT22;2434;48.486;7.964;2023-03-01T05:53:11;-1.20;61.00
4840;DHT22;2434;48.486;7.964;2023-03-01T05:55:42;-1.00;59.60
4840;DHT22;2434;48.486;7.964;2023-03-01T05:58:12;-1.00;58.90
4840;DHT22;2434;48.486;7.964;2023-03-01T06:00:43;-0.90;58.50
4840;DHT22;2434;48.486;7.964;2023-03-01T06:03:12;-1.10;59.60
4840;DHT22;2434;48.486;7.964;2023-03-01T06:05:42;-1.10;60.50
4840;DHT22;2434;48.486;7.964;2023-03-01T06:08:11;-0.90;59.00
4840;DHT22;2434;48.486;7.964;2023-03-01T06:10:41;-0.80;58.70
4840;DHT22;2434;48.486;7.964;2023-03-01T06:13:09;-0.80;57.60
4840;DHT22;2434;48.486;7.964;2023-03-01T06:15:37;-0.90;59.20
4840;DHT22;2434;48.486;7.964;2023-03-01T06:18:05;-0.80;58.30
4840;DHT22;2434;48.486;7.964;2023-03-01T06:20:33;-1.10;59.70
4840;DHT22;2434;48.486;7.964;2023-03-01T06:23:02;-0.90;58.40
4840;DHT22;2434;48.486;7.964;2023-03-01T06:25:31;-0.90;57.40
4840;DHT22;2434;48.486;7.964;2023-03-01T06:28:01;-0.70;57.10
4840;DHT22;2434;48.486;7.964;2023-03-01T06:30:29;-1.10;59.20
4840;DHT22;2434;48.486;7.964;2023-03-01T06:32:57;-1.20;60.60
4840;DHT22;2434;48.486;7.964;2023-03-01T06:35:28;-1.30;61.40
4840;DHT22;2434;48.486;7.964;2023-03-01T06:37:58;-1.40;62.40
4840;DHT22;2434;48.486;7.964;2023-03-01T06:40:27;-1.30;69.30
4840;DHT22;2434;48.486;7.964;2023-03-01T06:42:55;-1.30;64.40
4840;DHT22;2434;48.486;7.964;2023-03-01T06:45:25;-1.10;61.50
4840;DHT22;2434;48.486;7.964;2023-03-01T06:48:01;-1.10;60.80
4840;DHT22;2434;48.486;7.964;2023-03-01T06:50:30;-1.00;60.20
4840;DHT22;2434;48.486;7.964;2023-03-01T06:52:59;-1.20;61.30
4840;DHT22;2434;48.486;7.964;2023-03-01T06:55:28;-1.10;60.30
4840;DHT22;2434;48.486;7.964;2023-03-01T06:57:56;-1.40;62.90
4840;DHT22;2434;48.486;7.964;2023-03-01T07:00:27;-1.20;62.60
4840;DHT22;2434;48.486;7.964;2023-03-01T07:02:58;-1.60;63.90
4840;DHT22;2434;48.486;7.964;2023-03-01T07:05:27;-1.70;65.60
4840;DHT22;2434;48.486;7.964;2023-03-01T07:07:55;-1.60;65.50
4840;DHT22;2434;48.486;7.964;2023-03-01T07:10:24;-1.40;63.70
4840;DHT22;2434;48.486;7.964;2023-03-01T07:12:54;-1.50;64.30
4840;DHT22;2434;48.486;7.964;2023-03-01T07:15:23;-1.90;66.50
4840;DHT22;2434;48.486;7.964;2023-03-01T07:17:53;-2.00;68.80
4840;DHT22;2434;48.486;7.964;2023-03-01T07:20:21;-2.00;68.70
4840;DHT22;2434;48.486;7.964;2023-03-01T07:22:52;-2.10;70.80
4840;DHT22;2434;48.486;7.964;2023-03-01T07:25:21;-1.90;68.90
4840;DHT22;2434;48.486;7.964;2023-03-01T07:27:50;-1.90;68.60
4840;DHT22;2434;48.486;7.964;2023-03-01T07:30:19;-2.00;69.10
4840;DHT22;2434;48.486;7.964;2023-03-01T07:32:48;-1.70;67.80
4840;DHT22;2434;48.486;7.964;2023-03-01T07:35:18;-1.80;68.50
4840;DHT22;2434;48.486;7.964;2023-03-01T07:37:46;-1.70;68.70
4840;DHT22;2434;48.486;7.964;2023-03-01T07:40:14;-1.60;67.60
4840;DHT22;2434;48.486;7.964;2023-03-01T07:42:42;-1.50;66.50
4840;DHT22;2434;48.486;7.964;2023-03-01T07:45:11;-1.80;67.60
4840;DHT22;2434;48.486;7.964;2023-03-01T07:47:40;-1.70;69.30
4840;DHT22;2434;48.486;7.964;2023-03-01T07:50:09;-1.60;67.30
4840;DHT22;2434;48.486;7.964;2023-03-01T07:52:39;-1.40;67.00
4840;DHT22;2434;48.486;7.964;2023-03-01T07:55:08;-1.20;65.10
4840;DHT22;2434;48.486;7.964;2023-03-01T07:57:36;-1.10;63.90
4840;DHT22;2434;48.486;7.964;2023-03-01T08:00:06;-0.90;63.30
4840;DHT22;2434;48.486;7.964;2023-03-01T08:02:40;-0.80;61.80
4840;DHT22;2434;48.486;7.964;2023-03-01T08:05:09;-0.70;61.80
4840;DHT22;2434;48.486;7.964;2023-03-01T08:07:38;-0.70;61.40
4840;DHT22;2434;48.486;7.964;2023-03-01T08:10:07;-0.80;63.10
4840;DHT22;2434;48.486;7.964;2023-03-01T08:12:36;-0.80;64.50
4840;DHT22;2434;48.486;7.964;2023-03-01T08:15:05;-0.60;63.20
4840;DHT22;2434;48.486;7.964;2023-03-01T08:17:33;-0.80;64.80
4840;DHT22;2434;48.486;7.964;2023-03-01T08:20:02;-1.00;66.40
4840;DHT22;2434;48.486;7.964;2023-03-01T08:22:32;-1.30;68.70
4840;DHT22;2434;48.486;7.964;2023-03-01T08:25:02;-1.30;71.20
4840;DHT22;2434;48.486;7.964;2023-03-01T08:27:30;-1.40;70.70
4840;DHT22;2434;48.486;7.964;2023-03-01T08:29:59;-1.40;70.60
4840;DHT22;2434;48.486;7.964;2023-03-01T08:32:27;-1.40;71.30
4840;DHT22;2434;48.486;7.964;2023-03-01T08:34:55;-1.40;72.90
4840;DHT22;2434;48.486;7.964;2023-03-01T08:37:23;-1.30;74.30
4840;DHT22;2434;48.486;7.964;2023-03-01T08:39:51;-1.20;73.80
4840;DHT22;2434;48.486;7.964;2023-03-01T08:42:23;-1.10;72.90
4840;DHT22;2434;48.486;7.964;2023-03-01T08:44:51;-0.90;70.90
4840;DHT22;2434;48.486;7.964;2023-03-01T08:47:19;-0.80;70.60
4840;DHT22;2434;48.486;7.964;2023-03-01T08:49:49;-0.90;72.90
4840;DHT22;2434;48.486;7.964;2023-03-01T08:52:17;-0.80;72.30
4840;DHT22;2434;48.486;7.964;2023-03-01T08:54:47;-0.70;71.50
4840;DHT22;2434;48.486;7.964;2023-03-01T08:57:15;-0.60;72.20
4840;DHT22;2434;48.486;7.964;2023-03-01T08:59:45;-0.50;70.60
4840;DHT22;2434;48.486;7.964;2023-03-01T09:02:16;-0.40;69.60
4840;DHT22;2434;48.486;7.964;2023-03-01T09:04:44;-0.30;68.90
4840;DHT22;2434;48.486;7.964;2023-03-01T09:07:12;-0.20;68.40
4840;DHT22;2434;48.486;7.964;2023-03-01T09:09:41;-0.10;69.10
4840;DHT22;2434;48.486;7.964;2023-03-01T09:12:09;0.10;68.30
4840;DHT22;2434;48.486;7.964;2023-03-01T09:14:37;0.10;67.20
4840;DHT22;2434;48.486;7.964;2023-03-01T09:17:07;0.20;67.60
4840;DHT22;2434;48.486;7.964;2023-03-01T09:19:35;0.30;67.40
4840;DHT22;2434;48.486;7.964;2023-03-01T09:22:03;0.50;67.70
4840;DHT22;2434;48.486;7.964;2023-03-01T09:24:31;0.50;65.60
4840;DHT22;2434;48.486;7.964;2023-03-01T09:27:00;0.50;65.80
4840;DHT22;2434;48.486;7.964;2023-03-01T09:29:28;0.60;65.90
4840;DHT22;2434;48.486;7.964;2023-03-01T09:31:56;0.60;64.60
4840;DHT22;2434;48.486;7.964;2023-03-01T09:34:26;0.70;64.80
4840;DHT22;2434;48.486;7.964;2023-03-01T09:36:54;0.70;65.90
4840;DHT22;2434;48.486;7.964;2023-03-01T09:39:25;0.80;66.00
4840;DHT22;2434;48.486;7.964;2023-03-01T09:41:58;0.90;65.30
4840;DHT22;2434;48.486;7.964;2023-03-01T09:44:32;1.10;65.70
4840;DHT22;2434;48.486;7.964;2023-03-01T09:47:03;1.20;62.90
4840;DHT22;2434;48.486;7.964;2023-03-01T09:49:35;1.20;63.00
4840;DHT22;2434;48.486;7.964;2023-03-01T09:52:15;1.30;62.30
4840;DHT22;2434;48.486;7.964;2023-03-01T09:54:51;1.50;61.60
4840;DHT22;2434;48.486;7.964;2023-03-01T09:57:28;1.50;62.20
4840;DHT22;2434;48.486;7.964;2023-03-01T10:00:11;1.50;59.80
4840;DHT22;2434;48.486;7.964;2023-03-01T10:02:43;1.60;60.90
4840;DHT22;2434;48.486;7.964;2023-03-01T10:05:34;1.80;61.00
4840;DHT22;2434;48.486;7.964;2023-03-01T10:08:28;1.90;60.10
4840;DHT22;2434;48.486;7.964;2023-03-01T10:10:58;2.40;59.90
4840;DHT22;2434;48.486;7.964;2023-03-01T10:13:33;2.20;58.50
4840;DHT22;2434;48.486;7.964;2023-03-01T10:16:05;2.30;58.50
4840;DHT22;2434;48.486;7.964;2023-03-01T10:18:37;2.30;56.50
4840;DHT22;2434;48.486;7.964;2023-03-01T10:21:14;2.40;56.50
4840;DHT22;2434;48.486;7.964;2023-03-01T10:23:43;2.50;56.20
4840;DHT22;2434;48.486;7.964;2023-03-01T10:26:25;2.50;56.40
4840;DHT22;2434;48.486;7.964;2023-03-01T10:29:02;2.70;56.20
4840;DHT22;2434;48.486;7.964;2023-03-01T10:31:38;2.70;55.90
4840;DHT22;2434;48.486;7.964;2023-03-01T10:34:12;2.70;54.90
4840;DHT22;2434;48.486;7.964;2023-03-01T10:36:44;3.00;57.70
4840;DHT22;2434;48.486;7.964;2023-03-01T10:39:15;3.00;52.40
4840;DHT22;2434;48.486;7.964;2023-03-01T10:41:54;3.10;54.00
4840;DHT22;2434;48.486;7.964;2023-03-01T10:44:41;3.20;53.80
4840;DHT22;2434;48.486;7.964;2023-03-01T10:47:16;3.20;49.40
4840;DHT22;2434;48.486;7.964;2023-03-01T10:49:58;3.20;50.50
4840;DHT22;2434;48.486;7.964;2023-03-01T10:52:31;3.30;50.10
4840;DHT22;2434;48.486;7.964;2023-03-01T10:55:03;3.40;50.10
4840;DHT22;2434;48.486;7.964;2023-03-01T10:57:35;3.60;52.60
4840;DHT22;2434;48.486;7.964;2023-03-01T11:00:25;3.60;50.20
4840;DHT22;2434;48.486;7.964;2023-03-01T11:03:11;3.60;49.60
4840;DHT22;2434;48.486;7.964;2023-03-01T11:05:56;3.60;50.20
4840;DHT22;2434;48.486;7.964;2023-03-01T11:08:38;3.70;50.40
4840;DHT22;2434;48.486;7.964;2023-03-01T11:11:18;3.70;48.00
4840;DHT22;2434;48.486;7.964;2023-03-01T11:13:51;3.90;50.20
4840;DHT22;2434;48.486;7.964;2023-03-01T11:16:28;4.00;50.80
4840;DHT22;2434;48.486;7.964;2023-03-01T11:19:14;4.00;49.60
4840;DHT22;2434;48.486;7.964;2023-03-01T11:21:49;4.20;46.50
4840;DHT22;2434;48.486;7.964;2023-03-01T11:24:19;4.20;46.80
4840;DHT22;2434;48.486;7.964;2023-03-01T11:26:51;4.20;46.50
4840;DHT22;2434;48.486;7.964;2023-03-01T11:29:27;4.20;47.50
4840;DHT22;2434;48.486;7.964;2023-03-01T11:32:08;4.20;46.10
4840;DHT22;2434;48.486;7.964;2023-03-01T11:34:43;4.20;46.40
4840;DHT22;2434;48.486;7.964;2023-03-01T11:37:20;4.30;47.30
4840;DHT22;2434;48.486;7.964;2023-03-01T11:39:58;4.40;46.70
4840;DHT22;2434;48.486;7.964;2023-03-01T11:42:38;4.30;45.50
4840;DHT22;2434;48.486;7.964;2023-03-01T11:45:10;4.40;46.60
4840;DHT22;2434;48.486;7.964;2023-03-01T11:47:49;4.60;46.00
4840;DHT22;2434;48.486;7.964;2023-03-01T11:50:24;4.60;45.20
4840;DHT22;2434;48.486;7.964;2023-03-01T11:53:12;4.80;47.80
4840;DHT22;2434;48.486;7.964;2023-03-01T11:55:56;4.70;44.70
4840;DHT22;2434;48.486;7.964;2023-03-01T11:58:40;4.80;44.30
4840;DHT22;2434;48.486;7.964;2023-03-01T12:01:22;4.80;44.60
4840;DHT22;2434;48.486;7.964;2023-03-01T12:04:33;4.80;45.20
4840;DHT22;2434;48.486;7.964;2023-03-01T12:07:05;5.00;44.30
4840;DHT22;2434;48.486;7.964;2023-03-01T12:09:51;5.10;44.40
4840;DHT22;2434;48.486;7.964;2023-03-01T12:12:42;5.10;44.00
4840;DHT22;2434;48.486;7.964;2023-03-01T12:15:39;5.20;44.40
4840;DHT22;2434;48.486;7.964;2023-03-01T12:18:42;5.30;43.80
4840;DHT22;2434;48.486;7.964;2023-03-01T12:21:20;5.30;44.40
4840;DHT22;2434;48.486;7.964;2023-03-01T12:24:10;5.40;44.00
4840;DHT22;2434;48.486;7.964;2023-03-01T12:26:51;5.40;42.20
4840;DHT22;2434;48.486;7.964;2023-03-01T12:29:30;5.60;44.20
4840;DHT22;2434;48.486;7.964;2023-03-01T12:32:23;5.60;42.10
4840;DHT22;2434;48.486;7.964;2023-03-01T12:35:16;5.60;41.00
4840;DHT22;2434;48.486;7.964;2023-03-01T12:37:54;5.60;41.70
4840;DHT22;2434;48.486;7.964;2023-03-01T12:40:43;5.70;41.30
4840;DHT22;2434;48.486;7.964;2023-03-01T12:43:25;5.80;41.10
4840;DHT22;2434;48.486;7.964;2023-03-01T12:46:14;5.90;40.40
4840;DHT22;2434;48.486;7.964;2023-03-01T12:48:53;5.90;39.50
4840;DHT22;2434;48.486;7.964;2023-03-01T12:51:24;5.90;40.50
4840;DHT22;2434;48.486;7.964;2023-03-01T12:53:55;5.90;40.70
4840;DHT22;2434;48.486;7.964;2023-03-01T12:56:28;6.00;41.30
4840;DHT22;2434;48.486;7.964;2023-03-01T12:59:02;6.10;41.10
4840;DHT22;2434;48.486;7.964;2023-03-01T13:01:48;6.20;41.30
4840;DHT22;2434;48.486;7.964;2023-03-01T13:04:23;6.20;41.60
4840;DHT22;2434;48.486;7.964;2023-03-01T13:07:02;6.30;42.70
4840;DHT22;2434;48.486;7.964;2023-03-01T13:09:38;6.30;40.00
4840;DHT22;2434;48.486;7.964;2023-03-01T13:12:41;6.30;39.50
4840;DHT22;2434;48.486;7.964;2023-03-01T13:15:28;6.40;39.20
4840;DHT22;2434;48.486;7.964;2023-03-01T13:17:59;6.40;41.00
4840;DHT22;2434;48.486;7.964;2023-03-01T13:20:32;6.40;38.90
4840;DHT22;2434;48.486;7.964;2023-03-01T13:23:04;6.50;40.50
4840;DHT22;2434;48.486;7.964;2023-03-01T13:25:34;6.60;40.80
4840;DHT22;2434;48.486;7.964;2023-03-01T13:28:38;6.40;39.40
4840;DHT22;2434;48.486;7.964;2023-03-01T13:31:08;6.50;39.70
4840;DHT22;2434;48.486;7.964;2023-03-01T13:33:43;6.60;38.60
4840;DHT22;2434;48.486;7.964;2023-03-01T13:36:47;6.60;39.60
4840;DHT22;2434;48.486;7.964;2023-03-01T13:39:30;6.60;39.90
4840;DHT22;2434;48.486;7.964;2023-03-01T13:42:00;6.60;39.10
4840;DHT22;2434;48.486;7.964;2023-03-01T13:44:32;6.60;39.30
4840;DHT22;2434;48.486;7.964;2023-03-01T13:47:16;6.50;38.40
4840;DHT22;2434;48.486;7.964;2023-03-01T13:49:48;6.70;41.30
4840;DHT22;2434;48.486;7.964;2023-03-01T13:52:35;6.80;40.20
4840;DHT22;2434;48.486;7.964;2023-03-01T13:55:04;6.70;37.70
4840;DHT22;2434;48.486;7.964;2023-03-01T13:57:36;6.70;38.30
4840;DHT22;2434;48.486;7.964;2023-03-01T14:00:07;6.80;38.50
4840;DHT22;2434;48.486;7.964;2023-03-01T14:02:35;6.70;37.30
4840;DHT22;2434;48.486;7.964;2023-03-01T14:05:09;6.60;37.30
4840;DHT22;2434;48.486;7.964;2023-03-01T14:07:38;6.80;37.40
4840;DHT22;2434;48.486;7.964;2023-03-01T14:10:12;6.80;38.20
4840;DHT22;2434;48.486;7.964;2023-03-01T14:12:45;6.80;37.90
4840;DHT22;2434;48.486;7.964;2023-03-01T14:15:21;6.80;37.60
4840;DHT22;2434;48.486;7.964;2023-03-01T14:17:59;6.80;37.40
4840;DHT22;2434;48.486;7.964;2023-03-01T14:20:37;7.10;37.50
4840;DHT22;2434;48.486;7.964;2023-03-01T14:23:11;6.90;36.90
4840;DHT22;2434;48.486;7.964;2023-03-01T14:25:47;7.00;37.80
4840;DHT22;2434;48.486;7.964;2023-03-01T14:28:18;6.80;37.00
4840;DHT22;2434;48.486;7.964;2023-03-01T14:30:49;6.90;38.10
4840;DHT22;2434;48.486;7.964;2023-03-01T14:33:21;6.80;36.70
4840;DHT22;2434;48.486;7.964;2023-03-01T14:35:56;6.90;37.00
4840;DHT22;2434;48.486;7.964;2023-03-01T14:38:31;6.90;37.70
4840;DHT22;2434;48.486;7.964;2023-03-01T14:41:03;6.90;36.70
4840;DHT22;2434;48.486;7.964;2023-03-01T14:43:33;7.00;36.80
4840;DHT22;2434;48.486;7.964;2023-03-01T14:46:02;7.00;37.00
4840;DHT22;2434;48.486;7.964;2023-03-01T14:48:31;6.90;37.50
4840;DHT22;2434;48.486;7.964;2023-03-01T14:51:01;7.00;38.60
4840;DHT22;2434;48.486;7.964;2023-03-01T14:53:32;7.00;38.90
4840;DHT22;2434;48.486;7.964;2023-03-01T14:56:16;7.00;36.10
4840;DHT22;2434;48.486;7.964;2023-03-01T14:58:46;7.00;36.60
4840;DHT22;2434;48.486;7.964;2023-03-01T15:01:16;7.00;36.60
4840;DHT22;2434;48.486;7.964;2023-03-01T15:03:46;7.00;37.50
4840;DHT22;2434;48.486;7.964;2023-03-01T15:06:19;7.00;37.00
4840;DHT22;2434;48.486;7.964;2023-03-01T15:08:50;7.00;36.70
4840;DHT22;2434;48.486;7.964;2023-03-01T15:11:21;7.30;35.80
4840;DHT22;2434;48.486;7.964;2023-03-01T15:13:52;7.60;37.70
4840;DHT22;2434;48.486;7.964;2023-03-01T15:16:23;7.80;36.30
4840;DHT22;2434;48.486;7.964;2023-03-01T15:18:54;7.30;34.90
4840;DHT22;2434;48.486;7.964;2023-03-01T15:21:27;7.10;36.50
4840;DHT22;2434;48.486;7.964;2023-03-01T15:24:07;7.10;37.70
4840;DHT22;2434;48.486;7.964;2023-03-01T15:26:41;7.00;36.70
4840;DHT22;2434;48.486;7.964;2023-03-01T15:29:16;6.80;37.00
4840;DHT22;2434;48.486;7.964;2023-03-01T15:31:54;6.90;38.70
4840;DHT22;2434;48.486;7.964;2023-03-01T15:34:24;6.80;37.60
4840;DHT22;2434;48.486;7.964;2023-03-01T15:36:55;7.10;41.40
4840;DHT22;2434;48.486;7.964;2023-03-01T15:39:35;7.20;37.10
4840;DHT22;2434;48.486;7.964;2023-03-01T15:42:07;7.20;39.90
4840;DHT22;2434;48.486;7.964;2023-03-01T15:44:37;7.10;37.10
4840;DHT22;2434;48.486;7.964;2023-03-01T15:47:26;7.10;36.70
4840;DHT22;2434;48.486;7.964;2023-03-01T15:49:55;6.90;37.40
4840;DHT22;2434;48.486;7.964;2023-03-01T15:52:28;7.00;37.70
4840;DHT22;2434;48.486;7.964;2023-03-01T15:55:02;6.90;37.40
4840;DHT22;2434;48.486;7.964;2023-03-01T15:57:30;6.70;37.90
4840;DHT22;2434;48.486;7.964;2023-03-01T15:59:59;6.70;38.20
4840;DHT22;2434;48.486;7.964;2023-03-01T16:02:30;6.60;37.70
4840;DHT22;2434;48.486;7.964;2023-03-01T16:04:58;6.60;38.30
4840;DHT22;2434;48.486;7.964;2023-03-01T16:07:28;6.60;38.00
4840;DHT22;2434;48.486;7.964;2023-03-01T16:09:58;6.60;37.50
4840;DHT22;2434;48.486;7.964;2023-03-01T16:12:26;6.60;37.60
4840;DHT22;2434;48.486;7.964;2023-03-01T16:14:54;6.50;37.60
4840;DHT22;2434;48.486;7.964;2023-03-01T16:17:24;6.50;38.50
4840;DHT22;2434;48.486;7.964;2023-03-01T16:19:52;6.50;38.60
4840;DHT22;2434;48.486;7.964;2023-03-01T16:22:20;6.40;38.30
4840;DHT22;2434;48.486;7.964;2023-03-01T16:24:53;6.50;38.30
4840;DHT22;2434;48.486;7.964;2023-03-01T16:27:21;6.40;38.90
4840;DHT22;2434;48.486;7.964;2023-03-01T16:29:50;6.40;38.40
4840;DHT22;2434;48.486;7.964;2023-03-01T16:32:18;6.30;39.80
4840;DHT22;2434;48.486;7.964;2023-03-01T16:34:46;6.40;38.10
4840;DHT22;2434;48.486;7.964;2023-03-01T16:37:16;6.30;38.60
4840;DHT22;2434;48.486;7.964;2023-03-01T16:39:46;6.30;38.70
4840;DHT22;2434;48.486;7.964;2023-03-01T16:42:17;6.30;39.30
4840;DHT22;2434;48.486;7.964;2023-03-01T16:44:45;6.30;39.10
4840;DHT22;2434;48.486;7.964;2023-03-01T16:47:13;6.30;38.70